Bathurst Island Cape Fourcroy, Australia
Current Conditions -  °F | °C
As of 7:00 PM on Thursday 29 Jan 2015 (Local Time) from YPDN Reporting Station
Rain Showers Rain Showers  
Wind Chill: 77°   Ceiling: 30000
Heat Index: 78°   Visibility: 6mi
Dew Point: 75°   Wind: 5mph
Humidity: 94%   Direction: 140°SE
Pressure: 29.71"   Gusts: NA
Location:  11.78°S, 130.02°E
Report Text: YPDN 291000Z 14004KT 9999 -SHRA FEW015 BKN300 FEW025CB 25/24 Q1006 TEMPO 1000/1100 VRB20G35KT 1000 TSRA BKN010 SCT020CB
Loading
Personal Weather Stations






























Interactive Weather Map New forecast layout! Learn more

10-Day Weather Forecast

Advertisements
Track Severe Weather on mobile